Time;durP1;ratioP1;P1;durP2;ratioP2;P2;SDS_P1;SDS_P2;PMS_P1;PMS_P2;Temp;Humidity;BMP_temperature;BMP_pressure;BME280_temperature;BME280_humidity;BME280_pressure;Samples;Min_cycle;Max_cycle;Signal;HPM_P1;HPM_P2
2021/09/18 00:01:22;;;;;;;;;;;13.20;99.90;;;;;;5004792;28;19925;-76
2021/09/18 00:03:49;;;;;;;;;;;13.10;99.90;;;;;;4999393;28;19926;-77
2021/09/18 00:06:16;;;;;;;;;;;13.10;99.90;;;;;;5003288;28;20407;-77
2021/09/18 00:08:44;;;;;;;;;;;13.10;99.90;;;;;;5003391;28;19925;-76
2021/09/18 00:11:10;;;;;;;;;;;13.00;99.90;;;;;;5006569;28;21837;-77
2021/09/18 00:13:37;;;;;;;;;;;13.00;99.90;;;;;;5013455;28;19929;-75
2021/09/18 00:16:04;;;;;;;;;;;13.00;99.90;;;;;;5005543;28;20399;-75
2021/09/18 00:18:31;;;;;;;;;;;12.90;99.90;;;;;;5003526;28;20009;-75
2021/09/18 00:20:58;;;;;;;;;;;12.80;99.90;;;;;;5005713;28;19925;-75
2021/09/18 00:23:25;;;;;;;;;;;12.80;99.90;;;;;;5003261;28;19978;-75
2021/09/18 00:25:53;;;;;;;;;;;12.80;99.90;;;;;;5004824;28;20016;-75
2021/09/18 00:28:19;;;;;;;;;;;12.80;99.90;;;;;;5003908;28;19932;-75
2021/09/18 00:30:46;;;;;;;;;;;12.80;99.90;;;;;;5006571;28;19936;-74
2021/09/18 00:33:13;;;;;;;;;;;12.80;99.90;;;;;;5008817;28;20444;-76
2021/09/18 00:35:39;;;;;;;;;;;12.70;99.90;;;;;;5004297;28;20403;-75
2021/09/18 00:38:06;;;;;;;;;;;12.70;99.90;;;;;;5003187;28;20311;-75
2021/09/18 00:40:33;;;;;;;;;;;12.70;99.90;;;;;;5013319;28;19929;-75
2021/09/18 00:43:01;;;;;;;;;;;12.70;99.90;;;;;;5008108;28;20683;-75
2021/09/18 00:45:27;;;;;;;;;;;12.80;99.90;;;;;;5005502;28;19926;-74
2021/09/18 00:47:54;;;;;;;;;;;12.90;99.90;;;;;;5002749;28;19926;-75
2021/09/18 00:50:21;;;;;;;;;;;12.90;99.90;;;;;;5002325;28;19961;-75
2021/09/18 00:52:49;;;;;;;;;;;13.00;99.90;;;;;;5008871;28;20316;-75
2021/09/18 00:55:16;;;;;;;;;;;13.10;99.90;;;;;;5003087;28;19925;-75
2021/09/18 00:57:42;;;;;;;;;;;13.00;99.90;;;;;;5005729;28;19929;-75
2021/09/18 01:00:13;;;;;;;;;;;12.90;99.90;;;;;;5005279;28;19925;-75
2021/09/18 01:02:40;;;;;;;;;;;12.80;99.90;;;;;;5001641;28;19925;-75
2021/09/18 01:05:08;;;;;;;;;;;12.70;99.90;;;;;;5002750;28;20020;-74
2021/09/18 01:07:34;;;;;;;;;;;12.70;99.90;;;;;;5005983;28;19925;-75
2021/09/18 01:10:02;;;;;;;;;;;12.60;99.90;;;;;;5000822;28;20336;-75
2021/09/18 01:12:28;;;;;;;;;;;12.60;99.90;;;;;;5010799;28;19932;-75
2021/09/18 01:14:55;;;;;;;;;;;12.60;99.90;;;;;;5009221;28;19944;-74
2021/09/18 01:17:23;;;;;;;;;;;12.70;99.90;;;;;;5016957;28;19926;-75
2021/09/18 01:19:50;;;;;;;;;;;12.60;99.90;;;;;;5007026;28;19925;-74
2021/09/18 01:22:19;;;;;;;;;;;12.60;99.90;;;;;;5020128;28;19925;-75
2021/09/18 01:24:47;;;;;;;;;;;12.60;99.90;;;;;;5006637;28;19947;-75
2021/09/18 01:27:13;;;;;;;;;;;12.40;99.90;;;;;;5007252;28;19936;-74
2021/09/18 01:29:40;;;;;;;;;;;12.40;99.90;;;;;;5008704;28;20402;-73
2021/09/18 01:32:07;;;;;;;;;;;12.40;99.90;;;;;;5003326;28;19937;-75
2021/09/18 01:34:33;;;;;;;;;;;12.40;99.90;;;;;;5006686;28;20314;-75
2021/09/18 01:37:00;;;;;;;;;;;12.40;99.90;;;;;;5004732;28;20418;-74
2021/09/18 01:39:27;;;;;;;;;;;12.40;99.90;;;;;;5003066;28;20356;-74
2021/09/18 01:41:55;;;;;;;;;;;12.40;99.90;;;;;;5004900;28;19932;-75
2021/09/18 01:44:22;;;;;;;;;;;12.40;99.90;;;;;;5000765;28;19933;-74
2021/09/18 01:46:49;;;;;;;;;;;12.30;99.90;;;;;;5004124;28;20298;-74
2021/09/18 01:49:15;;;;;;;;;;;12.20;99.90;;;;;;5003627;28;19984;-74
2021/09/18 01:51:43;;;;;;;;;;;12.20;99.90;;;;;;5005225;28;19926;-74
2021/09/18 01:54:10;;;;;;;;;;;12.30;99.90;;;;;;5007706;28;19932;-74
2021/09/18 01:56:37;;;;;;;;;;;12.30;99.90;;;;;;5007149;28;19926;-74
2021/09/18 01:59:05;;;;;;;;;;;12.30;99.90;;;;;;5007600;28;19930;-75
2021/09/18 02:01:31;;;;;;;;;;;12.20;99.90;;;;;;5007352;28;19926;-75
2021/09/18 02:03:58;;;;;;;;;;;12.10;99.90;;;;;;5003736;28;19932;-75
2021/09/18 02:06:25;;;;;;;;;;;12.10;99.90;;;;;;5012289;28;19933;-76
2021/09/18 02:08:51;;;;;;;;;;;12.00;99.90;;;;;;5010384;28;19925;-76
2021/09/18 02:11:18;;;;;;;;;;;12.00;99.90;;;;;;5011822;28;19931;-75
2021/09/18 02:13:45;;;;;;;;;;;12.00;99.90;;;;;;5008000;28;19931;-75
2021/09/18 02:16:13;;;;;;;;;;;12.00;99.90;;;;;;5006768;28;20303;-75
2021/09/18 02:18:40;;;;;;;;;;;11.90;99.90;;;;;;5000252;28;19956;-75
2021/09/18 02:21:06;;;;;;;;;;;12.00;99.90;;;;;;5006452;28;20322;-75
2021/09/18 02:23:33;;;;;;;;;;;11.90;99.90;;;;;;4999427;28;19929;-75
2021/09/18 02:26:00;;;;;;;;;;;11.90;99.90;;;;;;5004097;28;19926;-76
2021/09/18 02:28:26;;;;;;;;;;;12.00;99.90;;;;;;5006731;28;19935;-76
2021/09/18 02:30:53;;;;;;;;;;;11.90;99.90;;;;;;5005346;28;19983;-76
2021/09/18 02:33:21;;;;;;;;;;;12.00;99.90;;;;;;5016954;28;19939;-76
2021/09/18 02:35:48;;;;;;;;;;;11.90;99.90;;;;;;4998739;28;20425;-78
2021/09/18 02:38:15;;;;;;;;;;;11.90;99.90;;;;;;4998655;28;19929;-75
2021/09/18 02:40:41;;;;;;;;;;;12.00;99.90;;;;;;5003163;28;19955;-76
2021/09/18 02:43:08;;;;;;;;;;;12.00;99.90;;;;;;5002049;28;19940;-76
2021/09/18 02:45:35;;;;;;;;;;;12.00;99.90;;;;;;5001460;28;20024;-76
2021/09/18 02:48:01;;;;;;;;;;;12.00;99.90;;;;;;5002112;28;20028;-75
2021/09/18 02:50:29;;;;;;;;;;;12.00;99.90;;;;;;5006081;28;19932;-74
2021/09/18 02:52:56;;;;;;;;;;;12.00;99.90;;;;;;5006894;28;19925;-75
2021/09/18 02:55:23;;;;;;;;;;;12.00;99.90;;;;;;5005538;28;19965;-75
2021/09/18 02:57:49;;;;;;;;;;;12.00;99.90;;;;;;5001058;28;20033;-74
2021/09/18 03:00:16;;;;;;;;;;;11.90;99.90;;;;;;5003292;28;19925;-75
2021/09/18 03:02:43;;;;;;;;;;;11.90;99.90;;;;;;5005595;28;19930;-76
2021/09/18 03:05:10;;;;;;;;;;;11.90;99.90;;;;;;4997076;28;19931;-75
2021/09/18 03:07:39;;;;;;;;;;;11.90;99.90;;;;;;5002270;28;20021;-75
2021/09/18 03:10:06;;;;;;;;;;;11.80;99.90;;;;;;5010277;28;19935;-74
2021/09/18 03:12:33;;;;;;;;;;;11.80;99.90;;;;;;5011765;28;20023;-75
2021/09/18 03:15:00;;;;;;;;;;;11.90;99.90;;;;;;5005130;28;20291;-75
2021/09/18 03:17:27;;;;;;;;;;;11.90;99.90;;;;;;5005454;28;20024;-76
2021/09/18 03:19:54;;;;;;;;;;;11.90;99.90;;;;;;5004798;28;19930;-76
2021/09/18 03:22:21;;;;;;;;;;;11.90;99.90;;;;;;5009528;28;19929;-76
2021/09/18 03:24:50;;;;;;;;;;;12.00;99.90;;;;;;5001888;28;20016;-76
2021/09/18 03:27:16;;;;;;;;;;;11.90;99.90;;;;;;5008050;28;19929;-76
2021/09/18 03:29:43;;;;;;;;;;;11.90;99.90;;;;;;5003957;28;20443;-75
2021/09/18 03:32:11;;;;;;;;;;;11.90;99.90;;;;;;5010574;28;19932;-76
2021/09/18 03:34:38;;;;;;;;;;;11.80;99.90;;;;;;5005398;28;20024;-74
2021/09/18 03:37:04;;;;;;;;;;;11.80;99.90;;;;;;5000357;28;19934;-74
2021/09/18 03:39:31;;;;;;;;;;;11.70;99.90;;;;;;5001311;28;20008;-76
2021/09/18 03:41:59;;;;;;;;;;;11.70;99.90;;;;;;5002379;28;20359;-75
2021/09/18 03:44:26;;;;;;;;;;;11.70;99.90;;;;;;5004495;28;19925;-74
2021/09/18 03:46:53;;;;;;;;;;;11.70;99.90;;;;;;5001976;28;20869;-74
2021/09/18 03:49:19;;;;;;;;;;;11.80;99.90;;;;;;4998182;28;20012;-75
2021/09/18 03:51:46;;;;;;;;;;;11.70;99.90;;;;;;5008321;28;20267;-76
2021/09/18 03:54:13;;;;;;;;;;;11.80;99.90;;;;;;5001828;28;20457;-76
2021/09/18 03:56:39;;;;;;;;;;;11.80;99.90;;;;;;5007370;28;20020;-77
2021/09/18 03:59:07;;;;;;;;;;;11.80;99.90;;;;;;5006243;28;19926;-77
2021/09/18 04:01:34;;;;;;;;;;;11.80;99.90;;;;;;5002570;28;20299;-77
2021/09/18 04:04:01;;;;;;;;;;;11.70;99.90;;;;;;5004010;28;20032;-76
2021/09/18 04:06:28;;;;;;;;;;;11.70;99.90;;;;;;4996369;28;19926;-76
2021/09/18 04:08:54;;;;;;;;;;;11.60;99.90;;;;;;5000880;28;19929;-77
2021/09/18 04:11:21;;;;;;;;;;;11.50;99.90;;;;;;4998566;28;19925;-76
2021/09/18 04:13:51;;;;;;;;;;;11.50;99.90;;;;;;5003108;28;20383;-77
2021/09/18 04:16:20;;;;;;;;;;;11.50;99.90;;;;;;5004304;28;20021;-76
2021/09/18 04:18:47;;;;;;;;;;;11.50;99.90;;;;;;5002786;28;19925;-76
2021/09/18 04:21:13;;;;;;;;;;;11.50;99.90;;;;;;5002824;28;20326;-76
2021/09/18 04:23:40;;;;;;;;;;;11.50;99.90;;;;;;5002070;28;19932;-76
2021/09/18 04:26:07;;;;;;;;;;;11.50;99.90;;;;;;5003586;28;19926;-76
2021/09/18 04:28:33;;;;;;;;;;;11.50;99.90;;;;;;5004725;28;20028;-75
2021/09/18 04:31:00;;;;;;;;;;;11.50;99.90;;;;;;5003309;28;19925;-74
2021/09/18 04:33:28;;;;;;;;;;;11.50;99.90;;;;;;5002928;28;19925;-75
2021/09/18 04:35:55;;;;;;;;;;;11.60;99.90;;;;;;5001319;28;19964;-75
2021/09/18 04:38:21;;;;;;;;;;;11.50;99.90;;;;;;5002131;28;19934;-75
2021/09/18 04:40:48;;;;;;;;;;;11.50;99.90;;;;;;5003704;28;20028;-75
2021/09/18 04:43:15;;;;;;;;;;;11.60;99.90;;;;;;5005824;28;19948;-74
2021/09/18 04:45:41;;;;;;;;;;;11.60;99.90;;;;;;5001241;28;20012;-73
2021/09/18 04:48:08;;;;;;;;;;;11.70;99.90;;;;;;5007372;28;19925;-73
2021/09/18 04:50:36;;;;;;;;;;;11.60;99.90;;;;;;5006055;28;20260;-73
2021/09/18 04:53:03;;;;;;;;;;;11.60;99.90;;;;;;5002680;28;19930;-73
2021/09/18 04:55:29;;;;;;;;;;;11.60;99.90;;;;;;5005040;28;19931;-74
2021/09/18 04:57:56;;;;;;;;;;;11.50;99.90;;;;;;5002131;28;19926;-74
2021/09/18 05:00:23;;;;;;;;;;;11.40;99.90;;;;;;5006412;28;20346;-74
2021/09/18 05:02:49;;;;;;;;;;;11.40;99.90;;;;;;5008455;28;19925;-74
2021/09/18 05:05:16;;;;;;;;;;;11.40;99.90;;;;;;5013520;28;20272;-73
2021/09/18 05:07:44;;;;;;;;;;;11.40;99.90;;;;;;5011535;28;20292;-73
2021/09/18 05:10:11;;;;;;;;;;;11.40;99.90;;;;;;5006367;28;19933;-72
2021/09/18 05:12:38;;;;;;;;;;;11.40;99.90;;;;;;5008104;28;19931;-73
2021/09/18 05:15:05;;;;;;;;;;;11.40;99.90;;;;;;5010040;28;19926;-72
2021/09/18 05:17:32;;;;;;;;;;;11.50;99.90;;;;;;5003492;28;19930;-72
2021/09/18 05:19:59;;;;;;;;;;;11.50;99.90;;;;;;5003139;28;20022;-71
2021/09/18 05:22:26;;;;;;;;;;;11.50;99.90;;;;;;5001855;28;19940;-73
2021/09/18 05:24:54;;;;;;;;;;;11.50;99.90;;;;;;4998700;28;19938;-72
2021/09/18 05:27:20;;;;;;;;;;;11.50;99.90;;;;;;5001536;28;19925;-72
2021/09/18 05:29:47;;;;;;;;;;;11.50;99.90;;;;;;5010505;28;19930;-72
2021/09/18 05:32:14;;;;;;;;;;;11.50;99.90;;;;;;5005196;28;20024;-72
2021/09/18 05:34:41;;;;;;;;;;;11.60;99.90;;;;;;5007810;28;19929;-72
2021/09/18 05:37:08;;;;;;;;;;;11.60;99.90;;;;;;5008842;28;19976;-72
2021/09/18 05:39:35;;;;;;;;;;;11.60;99.90;;;;;;5003408;28;19925;-72
2021/09/18 05:42:03;;;;;;;;;;;11.60;99.90;;;;;;5005398;28;19994;-72
2021/09/18 05:44:30;;;;;;;;;;;11.60;99.90;;;;;;5006476;28;20466;-72
2021/09/18 05:46:56;;;;;;;;;;;11.50;99.90;;;;;;5006665;28;19929;-72
2021/09/18 05:49:23;;;;;;;;;;;11.50;99.90;;;;;;5005379;28;20348;-71
2021/09/18 05:51:50;;;;;;;;;;;11.50;99.90;;;;;;5006016;28;19930;-72
2021/09/18 05:54:16;;;;;;;;;;;11.50;99.90;;;;;;5008975;28;19931;-71
2021/09/18 05:56:43;;;;;;;;;;;11.50;99.90;;;;;;5001069;28;20133;-73
2021/09/18 05:59:11;;;;;;;;;;;11.50;99.90;;;;;;5003988;28;19983;-72
2021/09/18 06:01:38;;;;;;;;;;;11.50;99.90;;;;;;5001904;28;19925;-72
2021/09/18 06:04:04;;;;;;;;;;;11.60;99.90;;;;;;5004462;28;20417;-71
2021/09/18 06:06:31;;;;;;;;;;;11.70;99.90;;;;;;5007497;28;19926;-71
2021/09/18 06:08:58;;;;;;;;;;;11.60;99.90;;;;;;5002040;28;19933;-70
2021/09/18 06:11:24;;;;;;;;;;;11.70;99.90;;;;;;5012705;28;19925;-73
2021/09/18 06:13:52;;;;;;;;;;;11.90;99.90;;;;;;5007538;28;19965;-72
2021/09/18 06:16:20;;;;;;;;;;;12.10;99.90;;;;;;4998722;28;19969;-72
2021/09/18 06:18:46;;;;;;;;;;;12.20;99.90;;;;;;5009534;28;19929;-72
2021/09/18 06:21:13;;;;;;;;;;;12.30;99.90;;;;;;5010914;28;19932;-73
2021/09/18 06:23:40;;;;;;;;;;;12.40;99.90;;;;;;5005820;28;19936;-73
2021/09/18 06:26:07;;;;;;;;;;;12.40;99.90;;;;;;5004976;28;19925;-72
2021/09/18 06:28:34;;;;;;;;;;;12.50;99.90;;;;;;5007876;28;20040;-72
2021/09/18 06:31:01;;;;;;;;;;;12.50;99.90;;;;;;5005315;28;19933;-73
2021/09/18 06:33:29;;;;;;;;;;;12.60;99.90;;;;;;5003432;28;19925;-73
2021/09/18 06:35:56;;;;;;;;;;;12.70;99.90;;;;;;5006224;28;19931;-72
2021/09/18 06:38:23;;;;;;;;;;;12.80;99.90;;;;;;5001560;28;19929;-73
2021/09/18 06:40:50;;;;;;;;;;;12.80;99.90;;;;;;5008558;28;19925;-73
2021/09/18 06:43:16;;;;;;;;;;;12.90;99.90;;;;;;5005867;28;19937;-73
2021/09/18 06:45:43;;;;;;;;;;;13.00;99.90;;;;;;5006350;28;19932;-72
2021/09/18 06:48:10;;;;;;;;;;;13.00;99.90;;;;;;5011704;28;19933;-72
2021/09/18 06:50:38;;;;;;;;;;;13.10;99.90;;;;;;5005248;28;19933;-73
2021/09/18 06:53:05;;;;;;;;;;;13.20;99.90;;;;;;5006242;28;19930;-72
2021/09/18 06:55:32;;;;;;;;;;;13.40;99.90;;;;;;5008397;28;20602;-72
2021/09/18 06:58:00;;;;;;;;;;;13.60;99.90;;;;;;5006438;28;19933;-76
2021/09/18 07:00:27;;;;;;;;;;;13.60;99.90;;;;;;5005997;28;20268;-75
2021/09/18 07:02:53;;;;;;;;;;;13.70;99.90;;;;;;5009036;28;19929;-75
2021/09/18 07:05:20;;;;;;;;;;;13.70;99.90;;;;;;5009164;28;19926;-75
2021/09/18 07:07:48;;;;;;;;;;;13.90;99.90;;;;;;5000738;28;19926;-76
2021/09/18 07:10:15;;;;;;;;;;;13.90;99.90;;;;;;4999039;28;19934;-76
2021/09/18 07:12:42;;;;;;;;;;;14.00;99.90;;;;;;5013069;28;20375;-75
2021/09/18 07:15:10;;;;;;;;;;;14.10;99.90;;;;;;5000838;28;19926;-75
2021/09/18 07:17:37;;;;;;;;;;;14.20;99.90;;;;;;5006826;28;19932;-76
2021/09/18 07:20:06;;;;;;;;;;;14.30;99.90;;;;;;4998242;28;19933;-77
2021/09/18 07:22:32;;;;;;;;;;;14.50;99.90;;;;;;4999824;28;19925;-76
2021/09/18 07:25:00;;;;;;;;;;;14.60;99.90;;;;;;5001573;28;19925;-76
2021/09/18 07:27:27;;;;;;;;;;;15.40;99.90;;;;;;5003476;28;20644;-76
2021/09/18 07:29:56;;;;;;;;;;;16.50;99.90;;;;;;5004071;28;19986;-77
2021/09/18 07:32:22;;;;;;;;;;;17.90;99.90;;;;;;5004074;28;19926;-76
2021/09/18 07:34:49;;;;;;;;;;;19.10;99.90;;;;;;5003892;28;19933;-76
2021/09/18 07:37:16;;;;;;;;;;;19.90;99.90;;;;;;5001764;28;20564;-76
2021/09/18 07:39:42;;;;;;;;;;;21.20;99.90;;;;;;5005866;28;20058;-76
2021/09/18 07:42:11;;;;;;;;;;;21.30;99.90;;;;;;5003350;28;19925;-75
2021/09/18 07:44:37;;;;;;;;;;;21.50;99.90;;;;;;5005000;28;20044;-76
2021/09/18 07:47:04;;;;;;;;;;;22.70;99.90;;;;;;5003857;28;19940;-76
2021/09/18 07:49:30;;;;;;;;;;;23.20;99.90;;;;;;5001467;28;19930;-76
2021/09/18 07:51:57;;;;;;;;;;;23.10;99.60;;;;;;5008494;28;19930;-76
2021/09/18 07:54:24;;;;;;;;;;;24.10;97.50;;;;;;5003281;28;21034;-76
2021/09/18 07:56:51;;;;;;;;;;;24.80;95.40;;;;;;5008438;28;20009;-77
2021/09/18 07:59:19;;;;;;;;;;;22.70;97.70;;;;;;5005686;28;19925;-76
2021/09/18 08:01:46;;;;;;;;;;;22.10;99.50;;;;;;5002981;28;19926;-77
2021/09/18 08:04:12;;;;;;;;;;;22.90;99.90;;;;;;5012008;28;20369;-76
2021/09/18 08:06:40;;;;;;;;;;;24.00;98.00;;;;;;5007545;28;19926;-76
2021/09/18 08:09:08;;;;;;;;;;;25.50;94.50;;;;;;4999193;28;19985;-77
2021/09/18 08:11:34;;;;;;;;;;;23.90;95.10;;;;;;4997327;28;20387;-76
2021/09/18 08:14:02;;;;;;;;;;;24.70;96.10;;;;;;5002492;28;20036;-77
2021/09/18 08:16:31;;;;;;;;;;;23.80;95.60;;;;;;5005932;28;20402;-76
2021/09/18 08:18:57;;;;;;;;;;;24.90;95.60;;;;;;5002647;28;19948;-76
2021/09/18 08:21:24;;;;;;;;;;;25.60;93.90;;;;;;5004155;28;19929;-75
2021/09/18 08:23:51;;;;;;;;;;;26.70;90.80;;;;;;5004535;28;20005;-76
2021/09/18 08:26:18;;;;;;;;;;;27.00;85.90;;;;;;5005837;28;19952;-76
2021/09/18 08:28:44;;;;;;;;;;;27.40;82.70;;;;;;5004396;28;19936;-76
2021/09/18 08:31:11;;;;;;;;;;;27.90;78.50;;;;;;5006725;28;19926;-76
2021/09/18 08:33:40;;;;;;;;;;;27.40;77.80;;;;;;5007740;28;20017;-76
2021/09/18 08:36:06;;;;;;;;;;;27.20;80.20;;;;;;5005152;28;19925;-76
2021/09/18 08:38:33;;;;;;;;;;;27.50;77.70;;;;;;5007819;28;19926;-76
2021/09/18 08:41:00;;;;;;;;;;;27.60;74.00;;;;;;5003150;28;19926;-77
2021/09/18 08:43:26;;;;;;;;;;;27.60;73.70;;;;;;4998319;28;19944;-76
2021/09/18 08:45:54;;;;;;;;;;;28.00;73.10;;;;;;5017594;28;20020;-77
2021/09/18 08:48:22;;;;;;;;;;;27.90;72.90;;;;;;4998055;28;19925;-76
2021/09/18 08:50:51;;;;;;;;;;;28.10;70.90;;;;;;5001399;28;19944;-77
2021/09/18 08:53:19;;;;;;;;;;;28.10;72.30;;;;;;5001261;28;19976;-77
2021/09/18 08:55:51;;;;;;;;;;;28.30;70.50;;;;;;5004383;28;20597;-77
2021/09/18 08:58:18;;;;;;;;;;;29.00;67.30;;;;;;5003291;28;19926;-77
2021/09/18 09:00:46;;;;;;;;;;;28.90;64.20;;;;;;5005326;28;19925;-77
2021/09/18 09:03:13;;;;;;;;;;;29.10;63.80;;;;;;4999174;28;20006;-77
2021/09/18 09:05:41;;;;;;;;;;;28.10;64.70;;;;;;5002984;28;19933;-77
2021/09/18 09:08:10;;;;;;;;;;;27.40;66.50;;;;;;5009097;28;19925;-77
2021/09/18 09:10:37;;;;;;;;;;;27.20;68.60;;;;;;4997039;28;19933;-76
2021/09/18 09:13:05;;;;;;;;;;;28.00;67.50;;;;;;4995345;28;20037;-76
2021/09/18 09:15:32;;;;;;;;;;;27.90;66.20;;;;;;5001863;28;20024;-76
2021/09/18 09:18:13;;;;;;;;;;;26.90;70.70;;;;;;4999682;28;19925;-76
2021/09/18 09:20:40;;;;;;;;;;;27.90;66.00;;;;;;4997907;28;19932;-77
2021/09/18 09:23:14;;;;;;;;;;;28.20;66.30;;;;;;5008270;28;19936;-77
2021/09/18 09:25:40;;;;;;;;;;;28.40;63.60;;;;;;5000831;28;19929;-76
2021/09/18 09:28:23;;;;;;;;;;;27.60;68.00;;;;;;5005045;28;19941;-77
2021/09/18 09:30:50;;;;;;;;;;;28.40;65.30;;;;;;5000256;28;19972;-76
2021/09/18 09:33:17;;;;;;;;;;;29.00;61.60;;;;;;4997007;28;19926;-78
2021/09/18 09:35:44;;;;;;;;;;;29.30;59.70;;;;;;5003453;28;20036;-77
2021/09/18 09:38:12;;;;;;;;;;;27.90;62.40;;;;;;5001268;28;19932;-75
2021/09/18 09:40:40;;;;;;;;;;;28.60;61.20;;;;;;5002687;28;20002;-76
2021/09/18 09:43:08;;;;;;;;;;;28.80;60.10;;;;;;5002173;28;20361;-77
2021/09/18 09:45:36;;;;;;;;;;;28.10;60.20;;;;;;5004787;28;19995;-77
2021/09/18 09:48:04;;;;;;;;;;;27.40;63.50;;;;;;5011195;28;19926;-76
2021/09/18 09:50:31;;;;;;;;;;;27.90;61.60;;;;;;5002892;28;19925;-76
2021/09/18 09:52:58;;;;;;;;;;;28.10;60.40;;;;;;5009148;28;19930;-76
2021/09/18 09:55:26;;;;;;;;;;;28.50;58.40;;;;;;5002188;28;19936;-76
2021/09/18 09:57:59;;;;;;;;;;;28.60;58.50;;;;;;5005763;28;19926;-77
2021/09/18 10:00:36;;;;;;;;;;;27.90;57.70;;;;;;4999387;28;19950;-77
2021/09/18 10:03:03;;;;;;;;;;;26.00;63.90;;;;;;5003674;28;20327;-78
2021/09/18 10:05:30;;;;;;;;;;;26.50;66.20;;;;;;4999176;28;20679;-78
2021/09/18 10:07:57;;;;;;;;;;;27.30;62.10;;;;;;5005928;28;19925;-78
2021/09/18 10:10:24;;;;;;;;;;;25.10;66.80;;;;;;4999939;28;20012;-75
2021/09/18 10:12:52;;;;;;;;;;;24.10;72.40;;;;;;5003080;28;20006;-77
2021/09/18 10:15:26;;;;;;;;;;;23.90;73.70;;;;;;5000121;28;20075;-77
2021/09/18 10:17:53;;;;;;;;;;;23.70;74.10;;;;;;5005262;28;19926;-77
2021/09/18 10:23:17;;;;;;;;;;;23.10;78.20;;;;;;5004353;28;19934;-76
2021/09/18 10:25:46;;;;;;;;;;;23.20;79.10;;;;;;5000139;28;20020;-76
2021/09/18 10:28:15;;;;;;;;;;;23.20;78.40;;;;;;5003255;28;19934;-74
2021/09/18 10:30:43;;;;;;;;;;;22.80;77.00;;;;;;5004177;28;19925;-74
2021/09/18 10:33:27;;;;;;;;;;;22.40;81.10;;;;;;5003539;28;20014;-77
2021/09/18 10:35:55;;;;;;;;;;;22.60;80.10;;;;;;5002806;28;20479;-77
2021/09/18 10:38:23;;;;;;;;;;;22.90;79.70;;;;;;5011509;28;20029;-76
2021/09/18 10:40:57;;;;;;;;;;;22.60;79.70;;;;;;5006643;28;19933;-77
2021/09/18 10:43:30;;;;;;;;;;;22.30;76.50;;;;;;5002836;28;19932;-76
2021/09/18 10:45:56;;;;;;;;;;;22.30;79.00;;;;;;5003481;28;20687;-76
2021/09/18 10:48:41;;;;;;;;;;;22.20;81.90;;;;;;5003396;28;19925;-76
2021/09/18 10:51:08;;;;;;;;;;;22.00;82.70;;;;;;5005581;28;20003;-76
2021/09/18 10:53:53;;;;;;;;;;;22.30;78.70;;;;;;5000442;28;20471;-77
2021/09/18 10:56:20;;;;;;;;;;;22.10;78.80;;;;;;5002330;28;19940;-77
2021/09/18 10:59:02;;;;;;;;;;;22.00;81.90;;;;;;5002656;28;19926;-77
2021/09/18 11:01:30;;;;;;;;;;;22.40;79.00;;;;;;5003076;27;20445;-77
2021/09/18 11:04:00;;;;;;;;;;;22.60;77.60;;;;;;5001541;28;19990;-75
2021/09/18 11:06:37;;;;;;;;;;;22.20;79.60;;;;;;5002728;28;19934;-76
2021/09/18 11:09:04;;;;;;;;;;;22.60;76.90;;;;;;5004101;28;19957;-77
2021/09/18 11:11:31;;;;;;;;;;;22.40;73.00;;;;;;5013034;28;20416;-78
2021/09/18 11:14:03;;;;;;;;;;;21.90;75.60;;;;;;5002563;28;20032;-77
2021/09/18 11:16:37;;;;;;;;;;;22.10;77.70;;;;;;5002575;28;19926;-77
2021/09/18 11:19:08;;;;;;;;;;;22.10;76.20;;;;;;5009849;28;19933;-77
2021/09/18 11:21:36;;;;;;;;;;;22.10;77.40;;;;;;5012952;28;20602;-77
2021/09/18 11:24:04;;;;;;;;;;;22.20;74.90;;;;;;4997390;28;19940;-75
2021/09/18 11:26:38;;;;;;;;;;;22.20;75.50;;;;;;5000275;28;20028;-75
2021/09/18 11:29:08;;;;;;;;;;;22.30;76.00;;;;;;5003465;28;20024;-75
2021/09/18 11:31:36;;;;;;;;;;;22.10;74.70;;;;;;4997635;28;20008;-76
2021/09/18 11:34:03;;;;;;;;;;;22.20;76.10;;;;;;4997981;28;20106;-76
2021/09/18 11:36:30;;;;;;;;;;;22.40;76.10;;;;;;4999441;28;22281;-76
2021/09/18 11:38:58;;;;;;;;;;;22.70;75.30;;;;;;5000446;28;20414;-77
2021/09/18 11:41:26;;;;;;;;;;;22.70;75.50;;;;;;4999811;28;19925;-75
2021/09/18 11:43:52;;;;;;;;;;;22.30;79.70;;;;;;5000180;28;20002;-76
2021/09/18 11:46:23;;;;;;;;;;;22.30;78.60;;;;;;4999875;28;20130;-75
2021/09/18 11:48:58;;;;;;;;;;;22.50;80.50;;;;;;5003290;28;19933;-76
2021/09/18 11:51:25;;;;;;;;;;;23.00;74.20;;;;;;4995865;28;20010;-76
2021/09/18 11:53:58;;;;;;;;;;;23.40;72.80;;;;;;5002598;28;20351;-77
2021/09/18 11:56:25;;;;;;;;;;;23.20;75.10;;;;;;5004466;28;19929;-77
2021/09/18 11:58:52;;;;;;;;;;;23.00;75.10;;;;;;5003690;28;20319;-77
2021/09/18 12:01:18;;;;;;;;;;;22.90;78.70;;;;;;5010443;28;20447;-77
2021/09/18 12:03:46;;;;;;;;;;;22.90;77.50;;;;;;5007039;28;19929;-77
2021/09/18 12:06:15;;;;;;;;;;;22.60;79.40;;;;;;5003507;28;19933;-77
2021/09/18 12:08:44;;;;;;;;;;;22.90;79.60;;;;;;5005147;28;19939;-77
2021/09/18 12:11:13;;;;;;;;;;;22.60;79.80;;;;;;4998351;28;20735;-78
2021/09/18 12:13:41;;;;;;;;;;;22.40;79.40;;;;;;5004873;28;19934;-77
2021/09/18 12:16:08;;;;;;;;;;;22.40;80.90;;;;;;5011433;28;19930;-77
2021/09/18 12:18:36;;;;;;;;;;;22.80;80.50;;;;;;5010402;28;20401;-73
2021/09/18 12:21:04;;;;;;;;;;;22.90;79.90;;;;;;5002032;28;19929;-77
2021/09/18 12:23:33;;;;;;;;;;;22.90;79.50;;;;;;5005188;28;19926;-77
2021/09/18 12:26:01;;;;;;;;;;;23.10;81.60;;;;;;5004501;28;19932;-77
2021/09/18 12:28:28;;;;;;;;;;;23.00;77.70;;;;;;5005261;28;19925;-78
2021/09/18 12:30:55;;;;;;;;;;;22.80;77.50;;;;;;5002682;28;19961;-77
2021/09/18 12:33:28;;;;;;;;;;;22.30;79.70;;;;;;5002168;28;20008;-77
2021/09/18 12:36:02;;;;;;;;;;;22.30;81.70;;;;;;4998983;28;19932;-74
2021/09/18 12:38:29;;;;;;;;;;;22.30;79.10;;;;;;4997687;28;20324;-75
2021/09/18 12:41:00;;;;;;;;;;;22.40;78.30;;;;;;5002688;28;19945;-75
2021/09/18 12:43:27;;;;;;;;;;;22.60;79.10;;;;;;5006369;28;19985;-75
2021/09/18 12:46:03;;;;;;;;;;;22.70;77.50;;;;;;5003059;28;20020;-75
2021/09/18 12:48:30;;;;;;;;;;;22.40;77.50;;;;;;4997881;28;20572;-75
2021/09/18 12:50:58;;;;;;;;;;;22.80;75.80;;;;;;4998956;28;19925;-76
2021/09/18 12:53:26;;;;;;;;;;;23.30;75.00;;;;;;4997289;28;19932;-77
2021/09/18 12:56:07;;;;;;;;;;;22.90;74.30;;;;;;5000324;28;19925;-77
2021/09/18 12:58:33;;;;;;;;;;;22.60;74.70;;;;;;5003428;28;19956;-76
2021/09/18 13:01:00;;;;;;;;;;;22.70;75.90;;;;;;5008195;28;19925;-77
2021/09/18 13:03:27;;;;;;;;;;;22.80;76.10;;;;;;5003987;28;19968;-77
2021/09/18 13:05:59;;;;;;;;;;;23.30;75.20;;;;;;5003079;28;20000;-77
2021/09/18 13:08:26;;;;;;;;;;;23.50;75.80;;;;;;5007154;28;19925;-77
2021/09/18 13:10:53;;;;;;;;;;;23.50;73.10;;;;;;5006847;28;20373;-77
2021/09/18 13:13:41;;;;;;;;;;;24.00;72.10;;;;;;5007777;28;19947;-77
2021/09/18 13:16:10;;;;;;;;;;;24.30;70.70;;;;;;5009990;28;19945;-77
2021/09/18 13:18:36;;;;;;;;;;;23.40;72.80;;;;;;5009104;28;19925;-77
2021/09/18 13:21:04;;;;;;;;;;;22.80;72.30;;;;;;5008889;28;20303;-77
2021/09/18 13:23:30;;;;;;;;;;;23.00;73.00;;;;;;5006089;28;20307;-79
2021/09/18 13:25:59;;;;;;;;;;;23.20;74.20;;;;;;5004060;28;20255;-76
2021/09/18 13:28:27;;;;;;;;;;;23.30;72.10;;;;;;5005178;28;19961;-77
2021/09/18 13:30:54;;;;;;;;;;;23.30;71.80;;;;;;5000878;28;19926;-77
2021/09/18 13:33:22;;;;;;;;;;;23.00;72.40;;;;;;5002799;28;20027;-77
2021/09/18 13:35:49;;;;;;;;;;;23.10;74.30;;;;;;4999971;28;20016;-78
2021/09/18 13:38:16;;;;;;;;;;;23.30;74.70;;;;;;4999859;28;20020;-77
2021/09/18 13:40:42;;;;;;;;;;;23.50;73.30;;;;;;4999710;28;19936;-76
2021/09/18 13:43:09;;;;;;;;;;;23.40;76.00;;;;;;5000301;28;20280;-76
2021/09/18 13:45:36;;;;;;;;;;;23.10;74.60;;;;;;5001661;28;19941;-78
2021/09/18 13:48:03;;;;;;;;;;;23.20;73.90;;;;;;5004022;28;21656;-76
2021/09/18 13:50:31;;;;;;;;;;;23.30;72.80;;;;;;4998583;28;19932;-78
2021/09/18 13:52:57;;;;;;;;;;;23.30;74.70;;;;;;5001916;28;19930;-78
2021/09/18 13:55:24;;;;;;;;;;;23.40;72.50;;;;;;5004658;28;19931;-78
2021/09/18 13:57:51;;;;;;;;;;;23.50;71.20;;;;;;5007578;28;19929;-77
2021/09/18 14:00:18;;;;;;;;;;;23.60;72.10;;;;;;5011326;28;20512;-77
2021/09/18 14:02:45;;;;;;;;;;;23.40;73.80;;;;;;5008909;28;20745;-76
2021/09/18 14:05:11;;;;;;;;;;;23.70;72.60;;;;;;5006754;28;19972;-76
2021/09/18 14:07:40;;;;;;;;;;;23.40;71.00;;;;;;5001496;28;20037;-76
2021/09/18 14:10:07;;;;;;;;;;;23.30;73.00;;;;;;5002551;28;20010;-77
2021/09/18 14:12:34;;;;;;;;;;;23.60;70.90;;;;;;5001141;28;19969;-77
2021/09/18 14:15:01;;;;;;;;;;;23.90;69.20;;;;;;5007003;28;19972;-76
2021/09/18 14:17:27;;;;;;;;;;;23.60;69.40;;;;;;5006113;28;19964;-77
2021/09/18 14:19:54;;;;;;;;;;;23.50;70.10;;;;;;5010755;28;20002;-76
2021/09/18 14:22:21;;;;;;;;;;;23.60;70.70;;;;;;5001631;28;19926;-77